sensor_id;sensor_type;location;lat;lon;timestamp;P1;durP1;ratioP1;P2;durP2;ratioP2
53207;SDS011;39093;52.788;6.940;2023-01-05T00:01:33;30.85;;;4.55;;
53207;SDS011;39093;52.788;6.940;2023-01-05T00:04:00;37.45;;;5.45;;
53207;SDS011;39093;52.788;6.940;2023-01-05T00:06:27;30.08;;;5.55;;
53207;SDS011;39093;52.788;6.940;2023-01-05T00:08:54;33.30;;;6.30;;
53207;SDS011;39093;52.788;6.940;2023-01-05T00:11:22;37.70;;;5.75;;
53207;SDS011;39093;52.788;6.940;2023-01-05T00:14:12;23.75;;;4.68;;
53207;SDS011;39093;52.788;6.940;2023-01-05T00:17:01;34.05;;;5.10;;
53207;SDS011;39093;52.788;6.940;2023-01-05T00:19:53;30.45;;;6.05;;
53207;SDS011;39093;52.788;6.940;2023-01-05T00:22:43;45.17;;;6.80;;
53207;SDS011;39093;52.788;6.940;2023-01-05T00:25:14;36.53;;;5.50;;
53207;SDS011;39093;52.788;6.940;2023-01-05T00:27:44;33.45;;;6.18;;
53207;SDS011;39093;52.788;6.940;2023-01-05T00:30:14;34.40;;;5.30;;
53207;SDS011;39093;52.788;6.940;2023-01-05T00:32:42;25.73;;;5.22;;
53207;SDS011;39093;52.788;6.940;2023-01-05T00:35:10;37.55;;;5.47;;
53207;SDS011;39093;52.788;6.940;2023-01-05T00:37:38;34.53;;;5.28;;
53207;SDS011;39093;52.788;6.940;2023-01-05T00:40:05;43.50;;;5.53;;
53207;SDS011;39093;52.788;6.940;2023-01-05T00:42:34;38.85;;;6.70;;
53207;SDS011;39093;52.788;6.940;2023-01-05T00:45:04;36.67;;;5.50;;
53207;SDS011;39093;52.788;6.940;2023-01-05T00:47:33;39.50;;;6.38;;
53207;SDS011;39093;52.788;6.940;2023-01-05T00:50:00;36.28;;;6.50;;
53207;SDS011;39093;52.788;6.940;2023-01-05T00:52:34;45.17;;;5.50;;
53207;SDS011;39093;52.788;6.940;2023-01-05T00:55:05;42.70;;;6.50;;
53207;SDS011;39093;52.788;6.940;2023-01-05T00:57:32;29.70;;;6.22;;
53207;SDS011;39093;52.788;6.940;2023-01-05T00:59:59;41.05;;;7.47;;
53207;SDS011;39093;52.788;6.940;2023-01-05T01:02:29;28.33;;;4.75;;
53207;SDS011;39093;52.788;6.940;2023-01-05T01:04:56;45.53;;;7.20;;
53207;SDS011;39093;52.788;6.940;2023-01-05T01:07:23;39.20;;;6.25;;
53207;SDS011;39093;52.788;6.940;2023-01-05T01:09:50;55.15;;;7.88;;
53207;SDS011;39093;52.788;6.940;2023-01-05T01:12:17;37.10;;;6.97;;
53207;SDS011;39093;52.788;6.940;2023-01-05T01:14:46;37.28;;;7.38;;
53207;SDS011;39093;52.788;6.940;2023-01-05T01:17:17;41.80;;;6.93;;
53207;SDS011;39093;52.788;6.940;2023-01-05T01:19:44;35.70;;;6.05;;
53207;SDS011;39093;52.788;6.940;2023-01-05T01:22:12;40.53;;;6.13;;
53207;SDS011;39093;52.788;6.940;2023-01-05T01:24:39;45.45;;;6.47;;
53207;SDS011;39093;52.788;6.940;2023-01-05T01:27:07;40.95;;;7.13;;
53207;SDS011;39093;52.788;6.940;2023-01-05T01:29:33;43.90;;;7.85;;
53207;SDS011;39093;52.788;6.940;2023-01-05T01:32:01;32.90;;;5.35;;
53207;SDS011;39093;52.788;6.940;2023-01-05T01:34:28;31.73;;;4.78;;
53207;SDS011;39093;52.788;6.940;2023-01-05T01:36:55;27.90;;;4.50;;
53207;SDS011;39093;52.788;6.940;2023-01-05T01:39:22;42.05;;;8.73;;
53207;SDS011;39093;52.788;6.940;2023-01-05T01:41:50;36.67;;;6.93;;
53207;SDS011;39093;52.788;6.940;2023-01-05T01:47:23;31.40;;;5.78;;
53207;SDS011;39093;52.788;6.940;2023-01-05T01:50:09;43.83;;;6.85;;
53207;SDS011;39093;52.788;6.940;2023-01-05T01:55:13;39.88;;;7.07;;
53207;SDS011;39093;52.788;6.940;2023-01-05T01:57:40;38.92;;;7.05;;
53207;SDS011;39093;52.788;6.940;2023-01-05T02:00:11;46.63;;;8.15;;
53207;SDS011;39093;52.788;6.940;2023-01-05T02:02:48;37.13;;;6.65;;
53207;SDS011;39093;52.788;6.940;2023-01-05T02:05:18;35.53;;;5.32;;
53207;SDS011;39093;52.788;6.940;2023-01-05T02:07:53;34.17;;;5.25;;
53207;SDS011;39093;52.788;6.940;2023-01-05T02:10:26;41.65;;;6.50;;
53207;SDS011;39093;52.788;6.940;2023-01-05T02:13:10;37.78;;;5.47;;
53207;SDS011;39093;52.788;6.940;2023-01-05T02:16:06;31.83;;;6.35;;
53207;SDS011;39093;52.788;6.940;2023-01-05T02:21:23;29.20;;;5.60;;
53207;SDS011;39093;52.788;6.940;2023-01-05T02:24:07;29.63;;;5.88;;
53207;SDS011;39093;52.788;6.940;2023-01-05T02:26:56;27.08;;;4.65;;
53207;SDS011;39093;52.788;6.940;2023-01-05T02:32:22;24.42;;;4.75;;
53207;SDS011;39093;52.788;6.940;2023-01-05T02:37:55;29.45;;;4.78;;
53207;SDS011;39093;52.788;6.940;2023-01-05T02:40:58;38.28;;;6.60;;
53207;SDS011;39093;52.788;6.940;2023-01-05T02:43:35;29.23;;;5.50;;
53207;SDS011;39093;52.788;6.940;2023-01-05T02:46:02;31.48;;;4.80;;
53207;SDS011;39093;52.788;6.940;2023-01-05T02:48:29;32.53;;;6.93;;
53207;SDS011;39093;52.788;6.940;2023-01-05T02:50:59;32.35;;;5.30;;
53207;SDS011;39093;52.788;6.940;2023-01-05T02:53:34;33.22;;;5.55;;
53207;SDS011;39093;52.788;6.940;2023-01-05T02:56:15;32.20;;;4.80;;
53207;SDS011;39093;52.788;6.940;2023-01-05T02:58:51;33.38;;;6.88;;
53207;SDS011;39093;52.788;6.940;2023-01-05T03:03:58;34.63;;;6.03;;
53207;SDS011;39093;52.788;6.940;2023-01-05T03:06:33;32.05;;;5.38;;
53207;SDS011;39093;52.788;6.940;2023-01-05T03:09:18;35.08;;;7.50;;
53207;SDS011;39093;52.788;6.940;2023-01-05T03:12:00;35.95;;;5.70;;
53207;SDS011;39093;52.788;6.940;2023-01-05T03:14:55;32.72;;;4.97;;
53207;SDS011;39093;52.788;6.940;2023-01-05T03:17:34;27.00;;;5.63;;
53207;SDS011;39093;52.788;6.940;2023-01-05T03:20:07;32.78;;;5.63;;
53207;SDS011;39093;52.788;6.940;2023-01-05T03:22:37;38.65;;;5.75;;
53207;SDS011;39093;52.788;6.940;2023-01-05T03:25:24;27.20;;;5.50;;
53207;SDS011;39093;52.788;6.940;2023-01-05T03:28:22;39.60;;;6.30;;
53207;SDS011;39093;52.788;6.940;2023-01-05T03:37:03;38.75;;;6.32;;
53207;SDS011;39093;52.788;6.940;2023-01-05T03:39:37;33.05;;;5.47;;
53207;SDS011;39093;52.788;6.940;2023-01-05T03:42:07;38.45;;;5.55;;
53207;SDS011;39093;52.788;6.940;2023-01-05T03:44:37;37.63;;;5.68;;
53207;SDS011;39093;52.788;6.940;2023-01-05T03:47:05;28.38;;;5.13;;
53207;SDS011;39093;52.788;6.940;2023-01-05T03:49:32;43.42;;;6.00;;
53207;SDS011;39093;52.788;6.940;2023-01-05T03:51:59;41.35;;;6.47;;
53207;SDS011;39093;52.788;6.940;2023-01-05T03:54:26;39.97;;;5.85;;
53207;SDS011;39093;52.788;6.940;2023-01-05T03:56:53;28.17;;;5.28;;
53207;SDS011;39093;52.788;6.940;2023-01-05T03:59:20;36.35;;;6.63;;
53207;SDS011;39093;52.788;6.940;2023-01-05T04:01:47;38.88;;;5.68;;
53207;SDS011;39093;52.788;6.940;2023-01-05T04:04:14;36.40;;;5.97;;
53207;SDS011;39093;52.788;6.940;2023-01-05T04:06:41;34.08;;;6.38;;
53207;SDS011;39093;52.788;6.940;2023-01-05T04:09:07;36.50;;;6.90;;
53207;SDS011;39093;52.788;6.940;2023-01-05T04:11:35;34.25;;;5.40;;
53207;SDS011;39093;52.788;6.940;2023-01-05T04:14:02;34.15;;;6.05;;
53207;SDS011;39093;52.788;6.940;2023-01-05T04:16:29;29.63;;;5.30;;
53207;SDS011;39093;52.788;6.940;2023-01-05T04:18:55;25.15;;;4.95;;
53207;SDS011;39093;52.788;6.940;2023-01-05T04:21:22;32.15;;;6.15;;
53207;SDS011;39093;52.788;6.940;2023-01-05T04:23:49;32.10;;;5.78;;
53207;SDS011;39093;52.788;6.940;2023-01-05T04:26:16;35.20;;;7.40;;
53207;SDS011;39093;52.788;6.940;2023-01-05T04:28:43;32.70;;;6.30;;
53207;SDS011;39093;52.788;6.940;2023-01-05T04:31:10;36.72;;;6.25;;
53207;SDS011;39093;52.788;6.940;2023-01-05T04:33:37;32.10;;;4.70;;
53207;SDS011;39093;52.788;6.940;2023-01-05T04:36:05;34.10;;;6.03;;
53207;SDS011;39093;52.788;6.940;2023-01-05T04:38:33;36.65;;;6.07;;
53207;SDS011;39093;52.788;6.940;2023-01-05T04:41:00;37.97;;;5.60;;
53207;SDS011;39093;52.788;6.940;2023-01-05T04:43:27;33.55;;;6.22;;
53207;SDS011;39093;52.788;6.940;2023-01-05T04:45:54;27.10;;;4.88;;
53207;SDS011;39093;52.788;6.940;2023-01-05T04:48:21;32.30;;;5.28;;
53207;SDS011;39093;52.788;6.940;2023-01-05T04:50:52;35.55;;;5.70;;
53207;SDS011;39093;52.788;6.940;2023-01-05T04:53:20;35.72;;;5.88;;
53207;SDS011;39093;52.788;6.940;2023-01-05T04:55:54;33.08;;;5.63;;
53207;SDS011;39093;52.788;6.940;2023-01-05T04:58:21;30.65;;;5.70;;
53207;SDS011;39093;52.788;6.940;2023-01-05T05:00:48;30.08;;;5.85;;
53207;SDS011;39093;52.788;6.940;2023-01-05T05:03:18;28.75;;;4.80;;
53207;SDS011;39093;52.788;6.940;2023-01-05T05:05:45;34.42;;;6.25;;
53207;SDS011;39093;52.788;6.940;2023-01-05T05:08:12;26.15;;;5.65;;
53207;SDS011;39093;52.788;6.940;2023-01-05T05:10:39;31.50;;;5.85;;
53207;SDS011;39093;52.788;6.940;2023-01-05T05:13:06;37.70;;;5.93;;
53207;SDS011;39093;52.788;6.940;2023-01-05T05:15:34;37.10;;;4.60;;
53207;SDS011;39093;52.788;6.940;2023-01-05T05:18:02;32.33;;;5.32;;
53207;SDS011;39093;52.788;6.940;2023-01-05T05:20:34;22.58;;;4.55;;
53207;SDS011;39093;52.788;6.940;2023-01-05T05:23:02;32.63;;;5.10;;
53207;SDS011;39093;52.788;6.940;2023-01-05T05:25:28;27.60;;;5.28;;
53207;SDS011;39093;52.788;6.940;2023-01-05T05:27:55;29.60;;;5.63;;
53207;SDS011;39093;52.788;6.940;2023-01-05T05:30:22;32.50;;;5.45;;
53207;SDS011;39093;52.788;6.940;2023-01-05T05:32:49;27.85;;;4.25;;
53207;SDS011;39093;52.788;6.940;2023-01-05T05:35:16;27.30;;;5.28;;
53207;SDS011;39093;52.788;6.940;2023-01-05T05:37:43;30.38;;;4.45;;
53207;SDS011;39093;52.788;6.940;2023-01-05T05:40:10;29.58;;;4.50;;
53207;SDS011;39093;52.788;6.940;2023-01-05T05:42:37;30.40;;;5.75;;
53207;SDS011;39093;52.788;6.940;2023-01-05T05:45:04;23.30;;;4.60;;
53207;SDS011;39093;52.788;6.940;2023-01-05T05:47:31;31.08;;;4.97;;
53207;SDS011;39093;52.788;6.940;2023-01-05T05:49:58;23.30;;;4.50;;
53207;SDS011;39093;52.788;6.940;2023-01-05T05:52:25;34.95;;;6.28;;
53207;SDS011;39093;52.788;6.940;2023-01-05T05:54:52;36.58;;;5.35;;
53207;SDS011;39093;52.788;6.940;2023-01-05T05:57:19;26.27;;;4.60;;
53207;SDS011;39093;52.788;6.940;2023-01-05T05:59:46;37.80;;;5.22;;
53207;SDS011;39093;52.788;6.940;2023-01-05T06:02:13;29.65;;;4.68;;
53207;SDS011;39093;52.788;6.940;2023-01-05T06:04:40;27.88;;;4.20;;
53207;SDS011;39093;52.788;6.940;2023-01-05T06:07:07;22.63;;;4.78;;
53207;SDS011;39093;52.788;6.940;2023-01-05T06:09:33;26.60;;;4.90;;
53207;SDS011;39093;52.788;6.940;2023-01-05T06:12:00;23.25;;;4.70;;
53207;SDS011;39093;52.788;6.940;2023-01-05T06:14:27;24.10;;;4.70;;
53207;SDS011;39093;52.788;6.940;2023-01-05T06:16:54;21.83;;;4.28;;
53207;SDS011;39093;52.788;6.940;2023-01-05T06:19:21;31.55;;;5.22;;
53207;SDS011;39093;52.788;6.940;2023-01-05T06:21:48;31.65;;;4.88;;
53207;SDS011;39093;52.788;6.940;2023-01-05T06:24:15;31.35;;;5.03;;
53207;SDS011;39093;52.788;6.940;2023-01-05T06:26:41;36.47;;;5.65;;
53207;SDS011;39093;52.788;6.940;2023-01-05T06:29:08;31.40;;;6.03;;
53207;SDS011;39093;52.788;6.940;2023-01-05T06:31:35;22.02;;;4.15;;
53207;SDS011;39093;52.788;6.940;2023-01-05T06:34:02;22.55;;;4.95;;
53207;SDS011;39093;52.788;6.940;2023-01-05T06:36:29;35.70;;;5.50;;
53207;SDS011;39093;52.788;6.940;2023-01-05T06:38:56;36.15;;;5.47;;
53207;SDS011;39093;52.788;6.940;2023-01-05T06:41:23;30.77;;;5.25;;
53207;SDS011;39093;52.788;6.940;2023-01-05T06:43:50;34.47;;;5.60;;
53207;SDS011;39093;52.788;6.940;2023-01-05T06:46:17;37.85;;;5.32;;
53207;SDS011;39093;52.788;6.940;2023-01-05T06:48:44;33.08;;;5.90;;
53207;SDS011;39093;52.788;6.940;2023-01-05T06:51:11;27.58;;;4.72;;
53207;SDS011;39093;52.788;6.940;2023-01-05T06:53:37;28.08;;;4.80;;
53207;SDS011;39093;52.788;6.940;2023-01-05T06:56:04;26.10;;;4.72;;
53207;SDS011;39093;52.788;6.940;2023-01-05T06:58:31;31.65;;;5.20;;
53207;SDS011;39093;52.788;6.940;2023-01-05T07:00:58;31.35;;;5.10;;
53207;SDS011;39093;52.788;6.940;2023-01-05T07:03:25;22.42;;;4.90;;
53207;SDS011;39093;52.788;6.940;2023-01-05T07:05:52;32.67;;;5.40;;
53207;SDS011;39093;52.788;6.940;2023-01-05T07:08:19;33.72;;;4.65;;
53207;SDS011;39093;52.788;6.940;2023-01-05T07:10:46;29.63;;;4.85;;
53207;SDS011;39093;52.788;6.940;2023-01-05T07:13:13;32.28;;;4.70;;
53207;SDS011;39093;52.788;6.940;2023-01-05T07:15:40;31.25;;;5.13;;
53207;SDS011;39093;52.788;6.940;2023-01-05T07:18:07;38.33;;;5.38;;
53207;SDS011;39093;52.788;6.940;2023-01-05T07:20:34;27.63;;;4.50;;
53207;SDS011;39093;52.788;6.940;2023-01-05T07:23:01;31.75;;;5.20;;
53207;SDS011;39093;52.788;6.940;2023-01-05T07:25:28;29.55;;;5.28;;
53207;SDS011;39093;52.788;6.940;2023-01-05T07:27:57;25.40;;;4.50;;
53207;SDS011;39093;52.788;6.940;2023-01-05T07:30:23;27.00;;;5.07;;
53207;SDS011;39093;52.788;6.940;2023-01-05T07:32:59;29.20;;;4.65;;
53207;SDS011;39093;52.788;6.940;2023-01-05T07:35:27;36.15;;;5.70;;
53207;SDS011;39093;52.788;6.940;2023-01-05T07:37:54;31.63;;;4.53;;
53207;SDS011;39093;52.788;6.940;2023-01-05T07:40:22;27.73;;;5.45;;
53207;SDS011;39093;52.788;6.940;2023-01-05T07:42:49;29.30;;;5.45;;
53207;SDS011;39093;52.788;6.940;2023-01-05T07:45:17;31.15;;;5.60;;
53207;SDS011;39093;52.788;6.940;2023-01-05T07:47:45;37.75;;;4.85;;
53207;SDS011;39093;52.788;6.940;2023-01-05T07:50:12;44.08;;;5.30;;
53207;SDS011;39093;52.788;6.940;2023-01-05T07:52:40;42.67;;;6.50;;
53207;SDS011;39093;52.788;6.940;2023-01-05T07:55:07;31.73;;;5.13;;
53207;SDS011;39093;52.788;6.940;2023-01-05T07:57:34;34.30;;;5.07;;
53207;SDS011;39093;52.788;6.940;2023-01-05T08:00:01;32.78;;;4.80;;
53207;SDS011;39093;52.788;6.940;2023-01-05T08:02:29;26.77;;;4.90;;
53207;SDS011;39093;52.788;6.940;2023-01-05T08:05:01;32.67;;;4.47;;
53207;SDS011;39093;52.788;6.940;2023-01-05T08:07:28;39.65;;;4.80;;
53207;SDS011;39093;52.788;6.940;2023-01-05T08:09:55;40.42;;;5.28;;
53207;SDS011;39093;52.788;6.940;2023-01-05T08:12:40;33.53;;;4.75;;
53207;SDS011;39093;52.788;6.940;2023-01-05T08:15:25;29.05;;;5.30;;
53207;SDS011;39093;52.788;6.940;2023-01-05T08:17:52;30.95;;;6.25;;
53207;SDS011;39093;52.788;6.940;2023-01-05T08:20:19;31.27;;;5.78;;
53207;SDS011;39093;52.788;6.940;2023-01-05T08:22:50;29.73;;;5.18;;
53207;SDS011;39093;52.788;6.940;2023-01-05T08:25:18;24.17;;;4.63;;
53207;SDS011;39093;52.788;6.940;2023-01-05T08:27:46;35.80;;;5.53;;
53207;SDS011;39093;52.788;6.940;2023-01-05T08:30:13;37.22;;;4.95;;
53207;SDS011;39093;52.788;6.940;2023-01-05T08:32:40;27.13;;;6.47;;
53207;SDS011;39093;52.788;6.940;2023-01-05T08:35:08;37.90;;;5.70;;
53207;SDS011;39093;52.788;6.940;2023-01-05T08:37:35;43.63;;;5.75;;
53207;SDS011;39093;52.788;6.940;2023-01-05T08:40:02;22.98;;;4.95;;
53207;SDS011;39093;52.788;6.940;2023-01-05T08:42:30;24.77;;;5.70;;
53207;SDS011;39093;52.788;6.940;2023-01-05T08:44:56;31.30;;;5.47;;
53207;SDS011;39093;52.788;6.940;2023-01-05T08:47:23;29.95;;;4.72;;
53207;SDS011;39093;52.788;6.940;2023-01-05T08:49:53;29.10;;;5.53;;
53207;SDS011;39093;52.788;6.940;2023-01-05T08:52:20;34.92;;;5.78;;
53207;SDS011;39093;52.788;6.940;2023-01-05T08:54:48;39.10;;;5.88;;
53207;SDS011;39093;52.788;6.940;2023-01-05T08:57:15;38.95;;;5.85;;
53207;SDS011;39093;52.788;6.940;2023-01-05T08:59:42;33.85;;;5.50;;
53207;SDS011;39093;52.788;6.940;2023-01-05T09:02:10;30.92;;;5.57;;
53207;SDS011;39093;52.788;6.940;2023-01-05T09:04:38;33.72;;;5.35;;
53207;SDS011;39093;52.788;6.940;2023-01-05T09:07:05;39.60;;;5.93;;
53207;SDS011;39093;52.788;6.940;2023-01-05T09:09:32;29.30;;;4.63;;
53207;SDS011;39093;52.788;6.940;2023-01-05T09:11:59;31.58;;;5.32;;
53207;SDS011;39093;52.788;6.940;2023-01-05T09:14:26;25.42;;;4.60;;
53207;SDS011;39093;52.788;6.940;2023-01-05T09:16:52;27.83;;;5.22;;
53207;SDS011;39093;52.788;6.940;2023-01-05T09:19:33;24.33;;;4.22;;
53207;SDS011;39093;52.788;6.940;2023-01-05T09:22:00;32.45;;;4.88;;
53207;SDS011;39093;52.788;6.940;2023-01-05T09:24:26;28.80;;;5.82;;
53207;SDS011;39093;52.788;6.940;2023-01-05T09:26:54;24.88;;;3.97;;
53207;SDS011;39093;52.788;6.940;2023-01-05T09:29:21;28.10;;;4.78;;
53207;SDS011;39093;52.788;6.940;2023-01-05T09:31:48;41.00;;;5.95;;
53207;SDS011;39093;52.788;6.940;2023-01-05T09:34:15;34.80;;;5.45;;
53207;SDS011;39093;52.788;6.940;2023-01-05T09:36:44;28.27;;;5.22;;
53207;SDS011;39093;52.788;6.940;2023-01-05T09:39:11;32.08;;;4.97;;
53207;SDS011;39093;52.788;6.940;2023-01-05T09:41:40;28.95;;;5.32;;
53207;SDS011;39093;52.788;6.940;2023-01-05T09:47:21;31.92;;;5.63;;
53207;SDS011;39093;52.788;6.940;2023-01-05T09:50:06;31.20;;;5.43;;
53207;SDS011;39093;52.788;6.940;2023-01-05T09:52:47;26.85;;;6.60;;
53207;SDS011;39093;52.788;6.940;2023-01-05T09:55:16;25.08;;;4.45;;
53207;SDS011;39093;52.788;6.940;2023-01-05T09:57:48;43.80;;;5.85;;
53207;SDS011;39093;52.788;6.940;2023-01-05T10:00:18;28.08;;;4.50;;
53207;SDS011;39093;52.788;6.940;2023-01-05T10:03:00;30.90;;;4.82;;
53207;SDS011;39093;52.788;6.940;2023-01-05T10:05:33;33.40;;;5.05;;
53207;SDS011;39093;52.788;6.940;2023-01-05T10:08:31;36.10;;;4.88;;
53207;SDS011;39093;52.788;6.940;2023-01-05T10:11:02;27.75;;;4.97;;
53207;SDS011;39093;52.788;6.940;2023-01-05T10:14:03;37.10;;;5.50;;
53207;SDS011;39093;52.788;6.940;2023-01-05T10:16:55;41.03;;;5.15;;
53207;SDS011;39093;52.788;6.940;2023-01-05T10:20:12;41.38;;;5.60;;
53207;SDS011;39093;52.788;6.940;2023-01-05T10:25:22;42.17;;;5.90;;
53207;SDS011;39093;52.788;6.940;2023-01-05T10:33:42;36.65;;;5.68;;
53207;SDS011;39093;52.788;6.940;2023-01-05T10:39:49;26.50;;;4.85;;
53207;SDS011;39093;52.788;6.940;2023-01-05T10:45:20;26.95;;;3.85;;
53207;SDS011;39093;52.788;6.940;2023-01-05T10:47:51;39.92;;;6.63;;
53207;SDS011;39093;52.788;6.940;2023-01-05T10:52:53;17.02;;;3.40;;
53207;SDS011;39093;52.788;6.940;2023-01-05T10:55:26;21.13;;;4.35;;
53207;SDS011;39093;52.788;6.940;2023-01-05T10:57:55;24.60;;;4.10;;
53207;SDS011;39093;52.788;6.940;2023-01-05T11:00:34;25.45;;;5.35;;
53207;SDS011;39093;52.788;6.940;2023-01-05T11:03:08;24.10;;;4.25;;
53207;SDS011;39093;52.788;6.940;2023-01-05T11:08:20;27.92;;;4.40;;
53207;SDS011;39093;52.788;6.940;2023-01-05T11:16:19;19.25;;;3.60;;
53207;SDS011;39093;52.788;6.940;2023-01-05T11:19:02;22.05;;;3.42;;
53207;SDS011;39093;52.788;6.940;2023-01-05T11:21:42;20.08;;;2.97;;
53207;SDS011;39093;52.788;6.940;2023-01-05T11:26:51;17.98;;;4.05;;
53207;SDS011;39093;52.788;6.940;2023-01-05T11:29:24;14.07;;;2.45;;
53207;SDS011;39093;52.788;6.940;2023-01-05T11:31:58;17.33;;;2.95;;
53207;SDS011;39093;52.788;6.940;2023-01-05T11:39:55;17.48;;;2.55;;
53207;SDS011;39093;52.788;6.940;2023-01-05T11:47:29;20.17;;;3.15;;
53207;SDS011;39093;52.788;6.940;2023-01-05T11:52:43;18.40;;;3.60;;
53207;SDS011;39093;52.788;6.940;2023-01-05T11:55:54;21.38;;;3.70;;
53207;SDS011;39093;52.788;6.940;2023-01-05T11:58:40;14.98;;;3.55;;
53207;SDS011;39093;52.788;6.940;2023-01-05T12:01:19;18.23;;;3.78;;
53207;SDS011;39093;52.788;6.940;2023-01-05T12:09:30;21.92;;;4.22;;
53207;SDS011;39093;52.788;6.940;2023-01-05T12:14:42;18.15;;;3.15;;
53207;SDS011;39093;52.788;6.940;2023-01-05T12:35:15;17.55;;;3.75;;
53207;SDS011;39093;52.788;6.940;2023-01-05T12:38:03;20.52;;;4.35;;
53207;SDS011;39093;52.788;6.940;2023-01-05T12:41:02;20.13;;;3.33;;
53207;SDS011;39093;52.788;6.940;2023-01-05T12:49:16;16.35;;;3.55;;
53207;SDS011;39093;52.788;6.940;2023-01-05T12:51:54;22.77;;;4.03;;
53207;SDS011;39093;52.788;6.940;2023-01-05T12:54:39;28.45;;;3.83;;
53207;SDS011;39093;52.788;6.940;2023-01-05T12:57:17;19.20;;;3.97;;
53207;SDS011;39093;52.788;6.940;2023-01-05T13:00:03;21.77;;;3.60;;
53207;SDS011;39093;52.788;6.940;2023-01-05T13:05:21;24.73;;;3.95;;
53207;SDS011;39093;52.788;6.940;2023-01-05T13:13:29;22.65;;;2.97;;
53207;SDS011;39093;52.788;6.940;2023-01-05T13:16:22;24.50;;;4.40;;
53207;SDS011;39093;52.788;6.940;2023-01-05T13:18:59;19.30;;;3.47;;
53207;SDS011;39093;52.788;6.940;2023-01-05T13:21:49;32.70;;;4.72;;
53207;SDS011;39093;52.788;6.940;2023-01-05T13:27:03;17.75;;;3.78;;
53207;SDS011;39093;52.788;6.940;2023-01-05T13:29:31;20.83;;;4.15;;
53207;SDS011;39093;52.788;6.940;2023-01-05T13:35:40;25.27;;;4.25;;
53207;SDS011;39093;52.788;6.940;2023-01-05T13:40:44;30.33;;;6.25;;
53207;SDS011;39093;52.788;6.940;2023-01-05T13:55:10;35.10;;;5.82;;
53207;SDS011;39093;52.788;6.940;2023-01-05T13:57:51;32.65;;;6.25;;
53207;SDS011;39093;52.788;6.940;2023-01-05T14:00:25;23.95;;;6.07;;
53207;SDS011;39093;52.788;6.940;2023-01-05T14:02:59;26.85;;;6.05;;
53207;SDS011;39093;52.788;6.940;2023-01-05T14:05:35;32.08;;;4.93;;
53207;SDS011;39093;52.788;6.940;2023-01-05T14:08:18;32.40;;;5.38;;
53207;SDS011;39093;52.788;6.940;2023-01-05T14:13:39;38.63;;;6.68;;
53207;SDS011;39093;52.788;6.940;2023-01-05T14:22:02;32.90;;;5.28;;
53207;SDS011;39093;52.788;6.940;2023-01-05T14:24:47;35.92;;;5.25;;
53207;SDS011;39093;52.788;6.940;2023-01-05T14:32:24;31.40;;;5.68;;
53207;SDS011;39093;52.788;6.940;2023-01-05T14:37:34;30.85;;;5.30;;
53207;SDS011;39093;52.788;6.940;2023-01-05T14:42:53;34.97;;;5.93;;
53207;SDS011;39093;52.788;6.940;2023-01-05T14:45:22;28.70;;;5.20;;
53207;SDS011;39093;52.788;6.940;2023-01-05T14:47:58;38.17;;;6.55;;
53207;SDS011;39093;52.788;6.940;2023-01-05T14:50:49;35.03;;;5.75;;
53207;SDS011;39093;52.788;6.940;2023-01-05T14:58:47;32.00;;;5.93;;
53207;SDS011;39093;52.788;6.940;2023-01-05T15:04:23;28.97;;;4.90;;
53207;SDS011;39093;52.788;6.940;2023-01-05T15:10:03;32.42;;;5.93;;
53207;SDS011;39093;52.788;6.940;2023-01-05T15:26:34;30.85;;;5.50;;
53207;SDS011;39093;52.788;6.940;2023-01-05T15:34:45;37.30;;;6.78;;
53207;SDS011;39093;52.788;6.940;2023-01-05T15:37:30;44.38;;;7.03;;
53207;SDS011;39093;52.788;6.940;2023-01-05T15:39:59;34.80;;;5.85;;
53207;SDS011;39093;52.788;6.940;2023-01-05T15:45:27;39.65;;;5.07;;
53207;SDS011;39093;52.788;6.940;2023-01-05T15:47:55;39.67;;;5.28;;
53207;SDS011;39093;52.788;6.940;2023-01-05T15:50:33;38.47;;;5.65;;
53207;SDS011;39093;52.788;6.940;2023-01-05T15:53:01;36.00;;;7.15;;
53207;SDS011;39093;52.788;6.940;2023-01-05T15:55:28;26.95;;;5.78;;
53207;SDS011;39093;52.788;6.940;2023-01-05T15:57:57;37.95;;;6.70;;
53207;SDS011;39093;52.788;6.940;2023-01-05T16:00:30;37.97;;;8.05;;
53207;SDS011;39093;52.788;6.940;2023-01-05T16:02:59;33.65;;;8.88;;
53207;SDS011;39093;52.788;6.940;2023-01-05T16:05:28;39.35;;;8.05;;
53207;SDS011;39093;52.788;6.940;2023-01-05T16:08:00;30.45;;;7.78;;
53207;SDS011;39093;52.788;6.940;2023-01-05T16:10:36;34.77;;;6.70;;
53207;SDS011;39093;52.788;6.940;2023-01-05T16:13:09;24.73;;;6.28;;
53207;SDS011;39093;52.788;6.940;2023-01-05T16:15:45;32.17;;;9.25;;
53207;SDS011;39093;52.788;6.940;2023-01-05T16:18:17;34.65;;;7.65;;
53207;SDS011;39093;52.788;6.940;2023-01-05T16:20:52;34.78;;;8.48;;
53207;SDS011;39093;52.788;6.940;2023-01-05T16:23:31;39.00;;;8.68;;
53207;SDS011;39093;52.788;6.940;2023-01-05T16:26:37;46.63;;;7.32;;
53207;SDS011;39093;52.788;6.940;2023-01-05T16:32:01;30.95;;;6.18;;
53207;SDS011;39093;52.788;6.940;2023-01-05T16:34:28;44.42;;;6.38;;
53207;SDS011;39093;52.788;6.940;2023-01-05T16:37:01;39.13;;;6.18;;
53207;SDS011;39093;52.788;6.940;2023-01-05T16:39:35;32.38;;;7.68;;
53207;SDS011;39093;52.788;6.940;2023-01-05T16:42:18;29.92;;;6.30;;
53207;SDS011;39093;52.788;6.940;2023-01-05T16:45:19;31.42;;;7.47;;
53207;SDS011;39093;52.788;6.940;2023-01-05T16:47:50;40.90;;;6.85;;
53207;SDS011;39093;52.788;6.940;2023-01-05T16:50:51;37.80;;;6.10;;
53207;SDS011;39093;52.788;6.940;2023-01-05T16:53:23;36.78;;;6.78;;
53207;SDS011;39093;52.788;6.940;2023-01-05T16:55:50;37.47;;;6.00;;
53207;SDS011;39093;52.788;6.940;2023-01-05T16:58:32;34.60;;;5.93;;
53207;SDS011;39093;52.788;6.940;2023-01-05T17:01:36;43.17;;;7.05;;
53207;SDS011;39093;52.788;6.940;2023-01-05T17:04:11;40.05;;;7.25;;
53207;SDS011;39093;52.788;6.940;2023-01-05T17:06:45;57.38;;;7.45;;
53207;SDS011;39093;52.788;6.940;2023-01-05T17:09:22;35.80;;;7.85;;
53207;SDS011;39093;52.788;6.940;2023-01-05T17:11:55;36.03;;;9.43;;
53207;SDS011;39093;52.788;6.940;2023-01-05T17:14:28;46.67;;;9.00;;
53207;SDS011;39093;52.788;6.940;2023-01-05T17:16:55;37.97;;;7.32;;
53207;SDS011;39093;52.788;6.940;2023-01-05T17:19:25;52.13;;;7.95;;
53207;SDS011;39093;52.788;6.940;2023-01-05T17:21:54;31.75;;;7.55;;
53207;SDS011;39093;52.788;6.940;2023-01-05T17:24:22;31.17;;;6.70;;
53207;SDS011;39093;52.788;6.940;2023-01-05T17:26:52;38.58;;;8.13;;
53207;SDS011;39093;52.788;6.940;2023-01-05T17:29:23;41.03;;;8.23;;
53207;SDS011;39093;52.788;6.940;2023-01-05T17:31:52;43.13;;;8.70;;
53207;SDS011;39093;52.788;6.940;2023-01-05T17:34:23;46.30;;;9.82;;
53207;SDS011;39093;52.788;6.940;2023-01-05T17:36:52;39.65;;;10.13;;
53207;SDS011;39093;52.788;6.940;2023-01-05T17:39:36;42.03;;;9.80;;
53207;SDS011;39093;52.788;6.940;2023-01-05T17:42:03;39.40;;;8.02;;
53207;SDS011;39093;52.788;6.940;2023-01-05T17:44:53;36.10;;;8.05;;
53207;SDS011;39093;52.788;6.940;2023-01-05T17:47:19;41.33;;;9.07;;
53207;SDS011;39093;52.788;6.940;2023-01-05T17:49:46;38.90;;;8.90;;
53207;SDS011;39093;52.788;6.940;2023-01-05T17:52:17;37.38;;;8.70;;
53207;SDS011;39093;52.788;6.940;2023-01-05T17:55:21;47.83;;;9.52;;
53207;SDS011;39093;52.788;6.940;2023-01-05T17:57:48;34.95;;;8.50;;
53207;SDS011;39093;52.788;6.940;2023-01-05T18:00:18;38.70;;;9.10;;
53207;SDS011;39093;52.788;6.940;2023-01-05T18:02:48;37.38;;;9.15;;
53207;SDS011;39093;52.788;6.940;2023-01-05T18:05:35;42.33;;;12.10;;
53207;SDS011;39093;52.788;6.940;2023-01-05T18:08:13;40.10;;;9.00;;